McHenry, Mississippi
Current Conditions -  °F | °C
As of 4:53 PM on Monday 22 Dec 2014 (Local Time) from KGPT Reporting Station
Broken Clouds Broken Clouds  
Wind Chill: 67°   Ceiling: 3400
Heat Index: 67°   Visibility: 7mi
Dew Point: 64°   Wind: 7mph
Humidity: 90%   Direction: 170°S
Pressure: 29.73"   Gusts: NA
Location:  30.71°N, 89.14°W
Report Text: KGPT 222253Z 17006KT 7SM SCT021 SCT026 BKN034 19/18 A2973 RMK AO2 SLP067 T01940178
Loading
Personal Weather Stations






























Interactive Weather Map New forecast layout! Learn more

10-Day Weather Forecast

Advertisements
Track Severe Weather on mobile